createdAt,value
2022-11-07T00:00:12.041Z,2.10
2022-11-07T00:03:00.422Z,2.20
2022-11-07T00:05:30.828Z,2.00
2022-11-07T00:07:59.909Z,1.60
2022-11-07T00:10:28.126Z,2.30
2022-11-07T00:13:05.005Z,1.90
2022-11-07T00:15:34.304Z,1.70
2022-11-07T00:18:03.052Z,2.10
2022-11-07T00:20:31.539Z,2.20
2022-11-07T00:22:59.292Z,1.80
2022-11-07T00:25:29.515Z,1.70
2022-11-07T00:27:59.330Z,1.70
2022-11-07T00:30:28.743Z,2.60
2022-11-07T00:33:01.226Z,3.10
2022-11-07T00:35:30.342Z,2.20
2022-11-07T00:38:01.770Z,2.00
2022-11-07T00:40:33.334Z,1.90
2022-11-07T00:43:02.208Z,2.30
2022-11-07T00:45:36.133Z,1.70
2022-11-07T00:48:07.372Z,1.90
2022-11-07T00:50:36.639Z,1.80
2022-11-07T00:53:04.401Z,1.30
2022-11-07T00:55:35.920Z,1.00
2022-11-07T00:58:05.234Z,1.40
2022-11-07T01:00:38.789Z,1.30
2022-11-07T01:03:27.123Z,0.90
2022-11-07T01:06:03.394Z,1.30
2022-11-07T01:08:36.098Z,1.00
2022-11-07T01:11:08.513Z,1.30
2022-11-07T01:13:38.616Z,1.30
2022-11-07T01:16:12.117Z,0.90
2022-11-07T01:18:44.111Z,0.90
2022-11-07T01:21:19.510Z,1.10
2022-11-07T01:23:50.193Z,1.10
2022-11-07T01:26:19.048Z,0.90
2022-11-07T01:28:50.328Z,1.10
2022-11-07T01:31:20.881Z,1.00
2022-11-07T01:33:48.792Z,1.00
2022-11-07T01:36:20.749Z,1.40
2022-11-07T01:38:49.450Z,1.70
2022-11-07T01:41:25.596Z,0.80
2022-11-07T01:44:07.149Z,0.90
2022-11-07T01:46:41.288Z,0.60
2022-11-07T01:49:27.011Z,1.20
2022-11-07T01:52:21.226Z,0.60
2022-11-07T01:55:19.522Z,0.90
2022-11-07T01:58:02.247Z,0.60
2022-11-07T02:00:35.641Z,0.60
2022-11-07T02:03:13.006Z,0.80
2022-11-07T02:05:50.758Z,0.90
2022-11-07T02:08:19.879Z,0.50
2022-11-07T02:10:49.901Z,0.60
2022-11-07T02:13:27.972Z,0.60
2022-11-07T02:16:02.328Z,0.80
2022-11-07T02:18:37.187Z,0.70
2022-11-07T02:21:33.150Z,0.50
2022-11-07T02:24:30.524Z,0.60
2022-11-07T02:27:03.469Z,0.50
2022-11-07T02:29:35.916Z,0.50
2022-11-07T02:32:11.950Z,0.40
2022-11-07T02:34:39.951Z,0.40
2022-11-07T02:37:27.225Z,0.50
2022-11-07T02:39:56.067Z,0.50
2022-11-07T02:42:43.616Z,0.40
2022-11-07T02:45:28.028Z,0.40
2022-11-07T02:47:57.511Z,0.30
2022-11-07T02:50:28.215Z,0.30
2022-11-07T02:52:56.818Z,0.50
2022-11-07T02:55:26.208Z,0.50
2022-11-07T02:57:56.462Z,0.30
2022-11-07T03:00:31.183Z,0.20
2022-11-07T03:03:01.550Z,0.50
2022-11-07T03:05:31.358Z,0.40
2022-11-07T03:08:00.605Z,0.50
2022-11-07T03:10:28.863Z,0.30
2022-11-07T03:12:59.092Z,0.30
2022-11-07T03:15:28.348Z,0.30
2022-11-07T03:18:00.493Z,0.80
2022-11-07T03:20:30.133Z,0.30
2022-11-07T03:22:57.908Z,0.20
2022-11-07T03:25:26.394Z,0.20
2022-11-07T03:27:55.599Z,0.20
2022-11-07T03:30:24.915Z,0.30
2022-11-07T03:32:54.227Z,0.30
2022-11-07T03:35:28.167Z,0.30
2022-11-07T03:37:57.371Z,0.30
2022-11-07T03:40:27.365Z,0.30
2022-11-07T03:42:55.829Z,0.50
2022-11-07T03:45:24.421Z,0.30
2022-11-07T03:47:53.227Z,0.30
2022-11-07T03:50:22.234Z,0.30
2022-11-07T03:52:51.273Z,0.30
2022-11-07T03:55:22.488Z,0.40
2022-11-07T03:57:51.502Z,0.20
2022-11-07T04:00:24.173Z,0.30
2022-11-07T04:02:53.782Z,0.30
2022-11-07T04:05:21.967Z,1.00
2022-11-07T04:07:50.844Z,0.90
2022-11-07T04:10:18.662Z,1.20
2022-11-07T04:13:08.491Z,0.90
2022-11-07T04:16:01.153Z,0.60
2022-11-07T04:18:38.470Z,0.50
2022-11-07T04:21:07.772Z,0.40
2022-11-07T04:23:36.451Z,0.40
2022-11-07T04:26:23.465Z,0.30
2022-11-07T04:28:51.196Z,0.30
2022-11-07T04:31:22.678Z,0.30
2022-11-07T04:33:52.221Z,0.40
2022-11-07T04:36:20.158Z,0.40
2022-11-07T04:38:48.038Z,0.30
2022-11-07T04:41:25.913Z,0.30
2022-11-07T04:43:55.934Z,0.40
2022-11-07T04:46:24.455Z,0.40
2022-11-07T04:48:52.912Z,0.30
2022-11-07T04:51:23.376Z,0.40
2022-11-07T04:53:51.592Z,0.30
2022-11-07T04:56:23.727Z,0.30
2022-11-07T04:58:54.497Z,0.50
2022-11-07T05:01:26.397Z,0.70
2022-11-07T05:03:55.734Z,0.70
2022-11-07T05:06:27.862Z,1.00
2022-11-07T05:08:56.848Z,0.80
2022-11-07T05:11:27.074Z,0.60
2022-11-07T05:13:55.322Z,0.40
2022-11-07T05:16:23.546Z,0.30
2022-11-07T05:18:54.168Z,0.30
2022-11-07T05:21:24.827Z,0.30
2022-11-07T05:23:58.055Z,0.30
2022-11-07T05:26:27.272Z,0.20
2022-11-07T05:28:58.336Z,0.30
2022-11-07T05:31:28.168Z,0.30
2022-11-07T05:34:00.993Z,0.40
2022-11-07T05:36:29.461Z,0.30
2022-11-07T05:38:57.523Z,1.00
2022-11-07T05:41:26.011Z,0.30
2022-11-07T05:43:55.118Z,0.40
2022-11-07T05:46:31.038Z,0.80
2022-11-07T05:49:01.061Z,0.80
2022-11-07T05:51:29.449Z,0.90
2022-11-07T05:53:57.778Z,0.90
2022-11-07T05:56:25.624Z,0.70
2022-11-07T05:58:53.916Z,0.60
2022-11-07T06:01:21.754Z,0.50
2022-11-07T06:03:49.799Z,0.60
2022-11-07T06:06:18.047Z,0.50
2022-11-07T06:08:45.943Z,0.50
2022-11-07T06:11:16.458Z,0.50
2022-11-07T06:13:45.574Z,0.50
2022-11-07T06:16:14.281Z,0.40
2022-11-07T06:18:43.623Z,0.40
2022-11-07T06:21:11.771Z,0.60
2022-11-07T06:23:43.150Z,0.50
2022-11-07T06:26:11.649Z,0.60
2022-11-07T06:28:41.825Z,0.50
2022-11-07T06:31:18.066Z,0.40
2022-11-07T06:33:46.440Z,0.50
2022-11-07T06:36:14.692Z,0.40
2022-11-07T06:38:42.706Z,0.40
2022-11-07T06:41:14.201Z,0.40
2022-11-07T06:43:42.859Z,0.40
2022-11-07T06:46:14.367Z,0.50
2022-11-07T06:48:45.425Z,0.50
2022-11-07T06:51:14.533Z,0.60
2022-11-07T06:53:42.836Z,0.50
2022-11-07T06:56:16.527Z,1.10
2022-11-07T06:58:45.398Z,0.80
2022-11-07T07:01:15.047Z,0.70
2022-11-07T07:03:45.127Z,0.80
2022-11-07T07:06:22.044Z,0.90
2022-11-07T07:08:55.189Z,0.80
2022-11-07T07:11:22.904Z,0.80
2022-11-07T07:13:55.087Z,0.40
2022-11-07T07:16:26.484Z,0.40
2022-11-07T07:18:58.364Z,0.50
2022-11-07T07:21:28.088Z,0.40
2022-11-07T07:23:58.046Z,0.60
2022-11-07T07:26:27.384Z,0.60
2022-11-07T07:28:55.599Z,0.50
2022-11-07T07:31:30.967Z,0.70
2022-11-07T07:34:00.285Z,0.90
2022-11-07T07:36:29.699Z,0.70
2022-11-07T07:38:59.717Z,0.60
2022-11-07T07:41:28.884Z,0.60
2022-11-07T07:43:59.122Z,0.70
2022-11-07T07:46:31.929Z,0.70
2022-11-07T07:49:02.058Z,0.60
2022-11-07T07:51:36.746Z,0.70
2022-11-07T07:54:05.974Z,0.80
2022-11-07T07:56:39.171Z,0.80
2022-11-07T07:59:07.847Z,0.70
2022-11-07T08:01:36.317Z,0.70
2022-11-07T08:04:06.658Z,0.90
2022-11-07T08:06:38.076Z,0.80
2022-11-07T08:09:08.355Z,0.80
2022-11-07T08:11:37.816Z,0.60
2022-11-07T08:14:07.330Z,0.70
2022-11-07T08:16:37.995Z,0.80
2022-11-07T08:19:07.251Z,6.20
2022-11-07T08:21:46.345Z,2.70
2022-11-07T08:24:24.286Z,1.80
2022-11-07T08:27:05.361Z,1.40
2022-11-07T08:29:42.239Z,1.20
2022-11-07T08:32:13.347Z,1.00
2022-11-07T08:34:42.041Z,1.30
2022-11-07T08:37:11.677Z,1.40
2022-11-07T08:39:47.928Z,1.20
2022-11-07T08:42:16.818Z,1.10
2022-11-07T08:44:47.170Z,1.20
2022-11-07T08:47:15.772Z,1.40
2022-11-07T08:49:54.245Z,0.90
2022-11-07T08:52:24.024Z,1.00
2022-11-07T08:54:55.449Z,1.00
2022-11-07T08:57:24.308Z,1.10
2022-11-07T08:59:54.395Z,1.10
2022-11-07T09:05:13.163Z,1.60
2022-11-07T09:07:40.972Z,1.50
2022-11-07T09:10:12.503Z,0.90
2022-11-07T09:12:51.125Z,1.50
2022-11-07T09:15:23.415Z,1.60
2022-11-07T09:17:54.520Z,1.60
2022-11-07T09:20:22.631Z,1.30
2022-11-07T09:22:58.145Z,1.30
2022-11-07T09:25:27.884Z,1.90
2022-11-07T09:28:03.463Z,1.20
2022-11-07T09:30:33.772Z,1.60
2022-11-07T09:33:02.442Z,3.60
2022-11-07T09:35:32.674Z,2.80
2022-11-07T09:38:06.846Z,2.80
2022-11-07T09:40:54.667Z,3.70
2022-11-07T09:43:53.893Z,3.90
2022-11-07T09:47:07.593Z,4.80
2022-11-07T09:49:48.867Z,3.10
2022-11-07T09:52:53.369Z,3.90
2022-11-07T09:55:46.175Z,2.60
2022-11-07T09:58:52.770Z,3.60
2022-11-07T10:01:32.542Z,1.90
2022-11-07T10:04:24.067Z,3.50
2022-11-07T10:07:09.862Z,2.90
2022-11-07T10:10:01.741Z,2.10
2022-11-07T10:13:26.472Z,1.90
2022-11-07T10:16:37.476Z,1.40
2022-11-07T10:19:19.387Z,1.90
2022-11-07T10:23:02.183Z,1.10
2022-11-07T10:25:53.339Z,1.10
2022-11-07T10:28:26.659Z,0.90
2022-11-07T10:31:01.411Z,1.10
2022-11-07T10:34:20.302Z,0.80
2022-11-07T10:36:49.248Z,0.70
2022-11-07T10:39:24.774Z,0.50
2022-11-07T10:42:14.005Z,0.90
2022-11-07T10:44:48.123Z,0.40
2022-11-07T10:47:25.639Z,0.70
2022-11-07T10:50:21.459Z,0.60
2022-11-07T10:53:19.357Z,0.40
2022-11-07T10:55:51.359Z,0.40
2022-11-07T10:58:35.641Z,0.40
2022-11-07T11:01:10.995Z,0.30
2022-11-07T11:03:53.296Z,0.30
2022-11-07T11:06:41.487Z,0.60
2022-11-07T11:09:31.655Z,0.60
2022-11-07T11:12:17.126Z,0.40
2022-11-07T11:14:52.871Z,0.40
2022-11-07T11:17:43.515Z,0.60
2022-11-07T11:20:48.646Z,0.50
2022-11-07T11:23:27.254Z,0.60
2022-11-07T11:29:38.235Z,0.40
2022-11-07T11:32:27.288Z,0.50
2022-11-07T11:35:46.626Z,0.50
2022-11-07T11:38:22.872Z,0.40
2022-11-07T11:41:37.186Z,0.40
2022-11-07T11:44:42.159Z,0.30
2022-11-07T11:47:30.363Z,0.30
2022-11-07T11:50:40.003Z,0.50
2022-11-07T11:53:21.457Z,0.60
2022-11-07T11:56:43.052Z,0.30
2022-11-07T11:59:56.124Z,0.40
2022-11-07T12:02:58.409Z,0.30
2022-11-07T12:05:51.840Z,0.50
2022-11-07T12:09:17.015Z,0.30
2022-11-07T12:12:26.051Z,0.20
2022-11-07T12:15:06.278Z,0.40
2022-11-07T12:18:13.007Z,0.50
2022-11-07T12:21:12.177Z,0.40
2022-11-07T12:24:17.597Z,0.30
2022-11-07T12:27:11.948Z,0.40
2022-11-07T12:30:31.061Z,0.40
2022-11-07T12:33:17.818Z,0.30
2022-11-07T12:36:30.808Z,0.40
2022-11-07T12:39:36.495Z,0.40
2022-11-07T12:42:26.766Z,0.40
2022-11-07T12:45:38.094Z,0.50
2022-11-07T12:49:10.282Z,0.30
2022-11-07T12:52:09.783Z,0.60
2022-11-07T12:55:01.253Z,0.30
2022-11-07T12:57:34.765Z,0.40
2022-11-07T13:00:24.522Z,0.50
2022-11-07T13:03:45.097Z,0.30
2022-11-07T13:06:44.001Z,0.40
2022-11-07T13:09:59.549Z,0.40
2022-11-07T13:13:18.026Z,0.50
2022-11-07T13:16:14.225Z,0.40
2022-11-07T13:21:19.935Z,0.60
2022-11-07T13:23:48.717Z,1.10
2022-11-07T13:26:48.158Z,0.70
2022-11-07T13:29:39.925Z,1.00
2022-11-07T13:32:14.792Z,1.00
2022-11-07T13:34:48.259Z,0.50
2022-11-07T13:37:28.317Z,0.40
2022-11-07T13:40:06.750Z,0.30
2022-11-07T13:42:45.445Z,0.40
2022-11-07T13:45:45.927Z,0.50
2022-11-07T13:48:33.437Z,0.40
2022-11-07T13:51:30.291Z,0.30
2022-11-07T13:54:28.248Z,0.30
2022-11-07T13:58:07.129Z,0.30
2022-11-07T14:00:38.378Z,0.50
2022-11-07T14:03:29.276Z,0.40
2022-11-07T14:06:00.909Z,0.30
2022-11-07T14:08:38.403Z,0.40
2022-11-07T14:11:22.641Z,0.90
2022-11-07T14:13:54.455Z,0.30
2022-11-07T14:16:28.148Z,0.60
2022-11-07T14:19:30.858Z,0.50
2022-11-07T14:22:03.083Z,0.30
2022-11-07T14:24:34.320Z,0.50
2022-11-07T14:27:17.216Z,0.50
2022-11-07T14:29:57.970Z,0.50
2022-11-07T14:32:32.164Z,0.60
2022-11-07T14:35:02.144Z,0.70
2022-11-07T14:37:35.420Z,0.90
2022-11-07T14:40:09.425Z,0.80
2022-11-07T14:42:38.657Z,0.70
2022-11-07T14:45:13.821Z,1.00
2022-11-07T14:47:46.577Z,1.10
2022-11-07T14:50:23.763Z,0.80
2022-11-07T14:53:08.799Z,0.60
2022-11-07T14:56:09.659Z,0.70
2022-11-07T14:58:38.024Z,0.70
2022-11-07T15:01:06.165Z,0.70
2022-11-07T15:03:39.595Z,0.90
2022-11-07T15:06:34.262Z,0.90
2022-11-07T15:12:33.047Z,0.80
2022-11-07T15:15:31.790Z,0.70
2022-11-07T15:18:08.082Z,0.70
2022-11-07T15:21:32.165Z,0.60
2022-11-07T15:24:44.976Z,0.90
2022-11-07T15:30:44.894Z,1.40
2022-11-07T15:33:18.417Z,0.90
2022-11-07T15:36:29.968Z,1.30
2022-11-07T15:39:06.158Z,1.30
2022-11-07T15:41:38.667Z,1.10
2022-11-07T15:44:07.167Z,1.30
2022-11-07T15:46:41.357Z,1.00
2022-11-07T15:49:19.205Z,0.90
2022-11-07T15:51:47.113Z,1.20
2022-11-07T15:54:20.228Z,0.70
2022-11-07T15:56:55.765Z,0.50
2022-11-07T15:59:35.157Z,0.90
2022-11-07T16:02:05.592Z,0.90
2022-11-07T16:04:39.460Z,0.90
2022-11-07T16:07:18.011Z,1.10
2022-11-07T16:09:49.102Z,1.10
2022-11-07T16:12:19.450Z,0.80
2022-11-07T16:14:48.519Z,0.80
2022-11-07T16:17:26.921Z,1.10
2022-11-07T16:19:58.802Z,1.00
2022-11-07T16:22:30.552Z,1.20
2022-11-07T16:25:02.067Z,1.20
2022-11-07T16:27:31.311Z,1.20
2022-11-07T16:29:59.470Z,1.10
2022-11-07T16:32:31.217Z,1.10
2022-11-07T16:35:01.241Z,1.20
2022-11-07T16:37:31.500Z,1.20
2022-11-07T16:40:12.860Z,0.90
2022-11-07T16:42:43.032Z,1.40
2022-11-07T16:45:20.542Z,1.30
2022-11-07T16:47:50.840Z,1.40
2022-11-07T16:50:20.369Z,1.10
2022-11-07T16:52:48.175Z,1.50
2022-11-07T16:55:23.844Z,1.10
2022-11-07T16:57:51.791Z,1.50
2022-11-07T17:00:23.708Z,3.10
2022-11-07T17:03:00.564Z,3.00
2022-11-07T17:05:49.238Z,2.50
2022-11-07T17:08:46.548Z,2.60
2022-11-07T17:11:17.857Z,1.40
2022-11-07T17:13:47.153Z,1.30
2022-11-07T17:16:35.492Z,1.10
2022-11-07T17:19:09.032Z,1.00
2022-11-07T17:21:48.159Z,1.00
2022-11-07T17:24:21.156Z,0.70
2022-11-07T17:26:50.440Z,1.30
2022-11-07T17:29:20.693Z,1.70
2022-11-07T17:31:57.881Z,13.10
2022-11-07T17:34:40.556Z,4.80
2022-11-07T17:37:16.803Z,4.40
2022-11-07T17:39:48.400Z,2.20
2022-11-07T17:42:19.588Z,1.60
2022-11-07T17:45:03.485Z,2.20
2022-11-07T17:51:14.873Z,1.70
2022-11-07T17:53:45.697Z,1.80
2022-11-07T17:56:21.255Z,2.00
2022-11-07T17:58:59.814Z,1.50
2022-11-07T18:01:32.726Z,1.10
2022-11-07T18:04:04.790Z,2.00
2022-11-07T18:06:39.950Z,4.40
2022-11-07T18:09:16.116Z,5.50
2022-11-07T18:11:47.892Z,4.30
2022-11-07T18:14:24.327Z,4.10
2022-11-07T18:17:01.303Z,4.30
2022-11-07T18:19:30.969Z,4.30
2022-11-07T18:22:04.657Z,6.20
2022-11-07T18:24:35.734Z,6.00
2022-11-07T18:27:10.132Z,10.10
2022-11-07T18:32:14.285Z,10.00
2022-11-07T18:34:44.855Z,7.70
2022-11-07T18:37:39.580Z,4.10
2022-11-07T18:40:09.295Z,4.00
2022-11-07T18:42:37.771Z,3.80
2022-11-07T18:45:21.567Z,4.00
2022-11-07T18:48:41.859Z,3.30
2022-11-07T18:52:15.842Z,3.40
2022-11-07T18:58:14.246Z,6.10
2022-11-07T19:00:49.711Z,8.90
2022-11-07T19:03:27.410Z,11.90
2022-11-07T19:06:12.555Z,11.30
2022-11-07T19:08:55.289Z,5.80
2022-11-07T19:11:38.084Z,6.00
2022-11-07T19:14:06.333Z,5.50
2022-11-07T19:16:35.730Z,5.00
2022-11-07T19:19:06.465Z,4.50
2022-11-07T19:21:39.148Z,3.70
2022-11-07T19:24:10.552Z,4.80
2022-11-07T19:26:40.217Z,5.10
2022-11-07T19:29:17.545Z,3.80
2022-11-07T19:31:50.632Z,3.80
2022-11-07T19:34:22.547Z,3.70
2022-11-07T19:36:52.894Z,4.70
2022-11-07T19:39:25.579Z,4.20
2022-11-07T19:41:54.554Z,2.40
2022-11-07T19:44:25.071Z,3.30
2022-11-07T19:46:55.674Z,5.90
2022-11-07T19:49:26.522Z,5.40
2022-11-07T19:52:08.989Z,5.60
2022-11-07T19:54:39.240Z,6.70
2022-11-07T19:57:08.120Z,4.60
2022-11-07T19:59:36.054Z,5.50
2022-11-07T20:02:33.289Z,2.90
2022-11-07T20:04:57.360Z,2.20
2022-11-07T20:07:25.985Z,3.20
2022-11-07T20:09:55.019Z,3.70
2022-11-07T20:12:25.957Z,5.30
2022-11-07T20:14:55.180Z,9.40
2022-11-07T20:17:23.048Z,8.20
2022-11-07T20:19:51.614Z,5.60
2022-11-07T20:22:21.568Z,6.00
2022-11-07T20:24:51.030Z,7.80
2022-11-07T20:27:18.976Z,7.00
2022-11-07T20:29:47.186Z,5.60
2022-11-07T20:32:14.878Z,5.70
2022-11-07T20:34:42.854Z,6.20
2022-11-07T20:37:12.463Z,8.80
2022-11-07T20:39:46.773Z,9.90
2022-11-07T20:42:14.797Z,6.80
2022-11-07T20:44:45.825Z,7.90
2022-11-07T20:47:15.097Z,7.00
2022-11-07T20:49:47.627Z,6.00
2022-11-07T20:52:20.023Z,6.50
2022-11-07T20:54:47.931Z,9.60
2022-11-07T20:57:16.272Z,8.80
2022-11-07T20:59:45.519Z,4.90
2022-11-07T21:02:14.076Z,6.30
2022-11-07T21:05:11.464Z,5.80
2022-11-07T21:07:31.330Z,5.70
2022-11-07T21:09:59.323Z,4.20
2022-11-07T21:12:29.763Z,3.40
2022-11-07T21:14:57.792Z,2.80
2022-11-07T21:17:25.755Z,5.40
2022-11-07T21:19:54.242Z,4.20
2022-11-07T21:22:29.116Z,6.50
2022-11-07T21:25:00.813Z,5.60
2022-11-07T21:27:28.969Z,4.70
2022-11-07T21:30:00.946Z,6.00
2022-11-07T21:32:30.427Z,5.40
2022-11-07T21:34:58.308Z,7.00
2022-11-07T21:37:26.024Z,5.70
2022-11-07T21:39:56.173Z,4.40
2022-11-07T21:42:23.838Z,2.80
2022-11-07T21:44:51.654Z,3.30
2022-11-07T21:47:22.772Z,3.30
2022-11-07T21:49:50.621Z,4.50
2022-11-07T21:52:19.200Z,3.80
2022-11-07T21:54:47.148Z,3.60
2022-11-07T21:57:15.223Z,4.40
2022-11-07T21:59:46.801Z,4.60
2022-11-07T22:02:15.333Z,3.00
2022-11-07T22:04:43.712Z,3.10
2022-11-07T22:07:13.024Z,2.50
2022-11-07T22:09:41.173Z,3.20
2022-11-07T22:12:12.060Z,3.30
2022-11-07T22:14:40.107Z,2.70
2022-11-07T22:17:11.029Z,3.30
2022-11-07T22:19:38.736Z,2.70
2022-11-07T22:22:09.523Z,2.70
2022-11-07T22:24:37.575Z,2.30
2022-11-07T22:27:06.490Z,3.40
2022-11-07T22:29:35.470Z,2.40
2022-11-07T22:32:08.237Z,2.70
2022-11-07T22:34:37.490Z,2.10
2022-11-07T22:37:05.460Z,2.70
2022-11-07T22:39:35.343Z,2.80
2022-11-07T22:42:03.620Z,2.20
2022-11-07T22:44:32.491Z,2.00
2022-11-07T22:47:00.335Z,2.00
2022-11-07T22:49:28.449Z,1.90
2022-11-07T22:51:56.303Z,1.90
2022-11-07T22:54:25.224Z,1.90
2022-11-07T22:56:53.963Z,2.20
2022-11-07T22:59:21.817Z,2.50
2022-11-07T23:01:50.142Z,1.80
2022-11-07T23:04:19.174Z,2.30
2022-11-07T23:06:47.704Z,2.00
2022-11-07T23:09:17.660Z,2.00
2022-11-07T23:11:47.482Z,2.20
2022-11-07T23:14:20.298Z,2.60
2022-11-07T23:16:55.638Z,2.00
2022-11-07T23:19:26.283Z,2.20
2022-11-07T23:21:56.697Z,2.20
2022-11-07T23:24:27.523Z,2.30
2022-11-07T23:26:57.656Z,1.60
2022-11-07T23:29:25.462Z,2.30
2022-11-07T23:31:53.493Z,1.90
2022-11-07T23:34:23.122Z,2.00
2022-11-07T23:36:52.847Z,2.00
2022-11-07T23:39:23.410Z,2.30
2022-11-07T23:41:52.515Z,2.00
2022-11-07T23:44:22.073Z,2.30
2022-11-07T23:47:10.772Z,2.00
2022-11-07T23:49:57.712Z,2.50
2022-11-07T23:52:25.891Z,2.40
2022-11-07T23:55:15.540Z,1.90
2022-11-07T23:58:02.816Z,2.20
